Los Posos, Valles Caldera, New Mexico Weather observations

Data are for 10 minute period ending at time listed.
 Day   Time   Solar   Ave.   Ave.  Ave.  Vector  Max.   Baro.   Total    
  of    of     Rad.   Air    Rel.  Wind   Wind   Wind  Press.  Precip.   
Year   Day            Temp.  Hum.  Speed  Dir.   Gust                    
2015   (MST)  Kw/m2    F      %     mph   deg.    mph    mb.     in.     
-------------------------------------------------------------------------
 148    4:30   100.00  99999.0   99999  99999.0   99999   99999.0   99999.0   99999.00 
 148    4:40   100.00  99999.0   99999  99999.0   99999   99999.0   99999.0   99999.00 
 148    4:50   100.00  99999.0   99999  99999.0   99999   99999.0   99999.0   99999.00 
 148    5:00   100.00  99999.0   99999  99999.0   99999   99999.0   99999.0   99999.00 
 148    5:10   100.00  99999.0   99999  99999.0   99999   99999.0   99999.0   99999.00 
 148    5:20   100.00  99999.0   99999  99999.0   99999   99999.0   99999.0   99999.00 
 148    5:30   100.00  99999.0   99999  99999.0   99999   99999.0   99999.0   99999.00 
 148    5:40   100.00  99999.0   99999  99999.0   99999   99999.0   99999.0   99999.00 
 148    5:50   100.00  99999.0   99999  99999.0   99999   99999.0   99999.0   99999.00 
 148    6:00   100.00  99999.0   99999  99999.0   99999   99999.0   99999.0   99999.00 
 148    6:10   100.00  99999.0   99999  99999.0   99999   99999.0   99999.0   99999.00 
 148    6:20   100.00  99999.0   99999  99999.0   99999   99999.0   99999.0   99999.00 
 148    6:30   100.00  99999.0   99999  99999.0   99999   99999.0   99999.0   99999.00 
 148    6:40   100.00  99999.0   99999  99999.0   99999   99999.0   99999.0   99999.00 
 148    6:50   100.00  99999.0   99999  99999.0   99999   99999.0   99999.0   99999.00 
 148    7:00   100.00  99999.0   99999  99999.0   99999   99999.0   99999.0   99999.00 
 148    7:10   100.00  99999.0   99999  99999.0   99999   99999.0   99999.0   99999.00 
 148    7:20   100.00  99999.0   99999  99999.0   99999   99999.0   99999.0   99999.00 
 148    7:30   100.00  99999.0   99999  99999.0   99999   99999.0   99999.0   99999.00 
 148    7:40   100.00  99999.0   99999  99999.0   99999   99999.0   99999.0   99999.00 
 148    7:50   100.00  99999.0   99999  99999.0   99999   99999.0   99999.0   99999.00 
 148    8:00   100.00  99999.0   99999  99999.0   99999   99999.0   99999.0   99999.00 
 148    8:10   100.00  99999.0   99999  99999.0   99999   99999.0   99999.0   99999.00 
 148    8:20   100.00  99999.0   99999  99999.0   99999   99999.0   99999.0   99999.00 
 148    8:30   100.00  99999.0   99999  99999.0   99999   99999.0   99999.0   99999.00 
 148    8:40   100.00  99999.0   99999  99999.0   99999   99999.0   99999.0   99999.00 
 148    8:50   100.00  99999.0   99999  99999.0   99999   99999.0   99999.0   99999.00 
 148    9:00   100.00  99999.0   99999  99999.0   99999   99999.0   99999.0   99999.00 
 148    9:10   100.00  99999.0   99999  99999.0   99999   99999.0   99999.0   99999.00 
 148    9:20   100.00  99999.0   99999  99999.0   99999   99999.0   99999.0   99999.00 
 148    9:30   100.00  99999.0   99999  99999.0   99999   99999.0   99999.0   99999.00 
 148    9:40   100.00  99999.0   99999  99999.0   99999   99999.0   99999.0   99999.00 
 148    9:50   100.00  99999.0   99999  99999.0   99999   99999.0   99999.0   99999.00 
 148   10:00   100.00  99999.0   99999  99999.0   99999   99999.0   99999.0   99999.00 
 148   10:10   100.00  99999.0   99999  99999.0   99999   99999.0   99999.0   99999.00 
 148   10:20   100.00  99999.0   99999  99999.0   99999   99999.0   99999.0   99999.00 
 148   10:30   100.00  99999.0   99999  99999.0   99999   99999.0   99999.0   99999.00 
 148   10:40   100.00  99999.0   99999  99999.0   99999   99999.0   99999.0   99999.00 
 148   10:50   100.00  99999.0   99999  99999.0   99999   99999.0   99999.0   99999.00 
 148   11:00   100.00  99999.0   99999  99999.0   99999   99999.0   99999.0   99999.00 
 148   11:10   100.00  99999.0   99999  99999.0   99999   99999.0   99999.0   99999.00 
 148   11:20   100.00  99999.0   99999  99999.0   99999   99999.0   99999.0   99999.00 
 148   11:30   100.00  99999.0   99999  99999.0   99999   99999.0   99999.0   99999.00 
 148   11:40   100.00  99999.0   99999  99999.0   99999   99999.0   99999.0   99999.00 
 148   11:50   100.00  99999.0   99999  99999.0   99999   99999.0   99999.0   99999.00 
 148   12:00   100.00  99999.0   99999  99999.0   99999   99999.0   99999.0   99999.00 
 148   12:10   100.00  99999.0   99999  99999.0   99999   99999.0   99999.0   99999.00 
 148   12:20   100.00  99999.0   99999  99999.0   99999   99999.0   99999.0   99999.00 
 148   12:30   100.00  99999.0   99999  99999.0   99999   99999.0   99999.0   99999.00 
 148   12:40   100.00  99999.0   99999  99999.0   99999   99999.0   99999.0   99999.00 
 148   12:50   100.00  99999.0   99999  99999.0   99999   99999.0   99999.0   99999.00 
 148   13:00   100.00  99999.0   99999  99999.0   99999   99999.0   99999.0   99999.00 
 148   13:10   100.00  99999.0   99999  99999.0   99999   99999.0   99999.0   99999.00 
 148   13:20   100.00  99999.0   99999  99999.0   99999   99999.0   99999.0   99999.00 
 148   13:30   100.00  99999.0   99999  99999.0   99999   99999.0   99999.0   99999.00 
 148   13:40   100.00  99999.0   99999  99999.0   99999   99999.0   99999.0   99999.00 
 148   13:50   100.00  99999.0   99999  99999.0   99999   99999.0   99999.0   99999.00 
 148   14:00   100.00  99999.0   99999  99999.0   99999   99999.0   99999.0   99999.00 
 148   14:10   100.00  99999.0   99999  99999.0   99999   99999.0   99999.0   99999.00 
 148   14:20   100.00  99999.0   99999  99999.0   99999   99999.0   99999.0   99999.00 
 148   14:30   100.00  99999.0   99999  99999.0   99999   99999.0   99999.0   99999.00 
 148   14:40   100.00  99999.0   99999  99999.0   99999   99999.0   99999.0   99999.00 
 148   14:50   100.00  99999.0   99999  99999.0   99999   99999.0   99999.0   99999.00 
 148   15:00   100.00  99999.0   99999  99999.0   99999   99999.0   99999.0   99999.00 
 148   15:10   100.00  99999.0   99999  99999.0   99999   99999.0   99999.0   99999.00 
 148   15:20   100.00  99999.0   99999  99999.0   99999   99999.0   99999.0   99999.00 
 148   15:30   0.60   64.3    18    8.7   278    18.5   99999.0    0.00 
 148   15:40   0.75   64.3    18    8.9   258    17.3   99999.0    0.00 
 148   15:50   0.57   64.1    19    8.5   257    19.1   99999.0    0.00 
 148   16:00   0.66   63.9    18   10.6   254    19.1   99999.0    0.00 
 148   16:10   0.61   63.5    18   10.2   279    21.5   99999.0    0.00 
 148   16:20   100.00  99999.0   99999  99999.0   99999   99999.0   99999.0   99999.00 
 148   16:30   0.52   63.6    16   10.7   273    23.9   99999.0    0.00 
 148   16:40   0.51   63.5    17   10.0   272    20.3   99999.0    0.00 
 148   16:50   0.47   64.1    18    7.1   290    15.5   99999.0    0.00 
 148   17:00   0.44   64.5    17    8.5   272    16.7   99999.0    0.01 
 148   17:10   0.41   64.0    18    8.5   301    16.1   99999.0    0.00 
 148   17:20   0.37   63.6    17    9.3   285    21.5   99999.0    0.00 
 148   17:30   0.34   63.5    18    9.1   298    20.3   99999.0    0.00 
 148   17:40   0.30   62.9    18    8.5   275    16.7   99999.0    0.00 
 148   17:50   0.26   62.2    18    9.6   273    16.7   99999.0    0.00 
 148   18:00   0.23   62.8    20    6.8   298    14.9   99999.0    0.00 
 148   18:10   0.19   62.7    22    7.7   297    14.3   99999.0    0.00 
 148   18:20   0.16   61.8    23    9.6   318    17.9   99999.0    0.00 
 148   18:30   0.13   60.8    24    8.3   289    17.3   99999.0    0.00 
 148   18:40   0.09   60.3    25    8.2   312    18.5   99999.0    0.00 
 148   18:50   0.06   59.5    26    7.7   302    15.5   99999.0    0.00 
 148   19:00   0.01   57.8    28    6.6   299    12.5   99999.0    0.00 
 148   19:10   0.01   57.1    29    6.4   306    16.7   99999.0    0.00 
 148   19:20   0.00   56.9    29    5.4   292    11.9   99999.0    0.00 
 148   19:30   0.00   56.4    30    5.6   301    13.7   99999.0    0.00 
 148   19:40   0.00   55.6    31    5.1   310    12.5   99999.0    0.00 
 148   19:50   0.00   55.3    32    5.5   320    11.3   99999.0    0.00 
 148   20:00   0.00   53.6    34    3.2    44     5.4   99999.0    0.00 
 148   20:10   0.00   51.3    38    2.2    18     7.8   99999.0    0.00 
 148   20:20   0.00   50.0    40    2.0    55     3.6   99999.0    0.00 
 148   20:30   0.00   47.5    45    0.7   216     2.4   99999.0    0.00 
 148   20:40   0.00   45.8    51    2.3   220     3.6   99999.0    0.00 
 148   20:50   0.00   44.7    53    2.2   224     3.0   99999.0    0.00 
 148   21:00   0.00   42.7    59    2.6   225     4.2   99999.0    0.00 
 148   21:10   0.00   42.3    60    2.6   229     3.6   99999.0    0.00 
 148   21:20   0.00   42.1    60    1.5   251     3.0   99999.0    0.00 
 148   21:30   0.00   41.5    61    2.4   236     3.6   99999.0    0.00 
 148   21:40   0.00   41.4    60    2.1   243     4.2   99999.0    0.00 
 148   21:50   0.00   40.9    61    1.6   196     3.6   99999.0    0.00 
 148   22:00   0.00   40.3    61    1.5   310     6.0   99999.0    0.00 
 148   22:10   0.00   39.3    64    2.7   187     5.4   99999.0    0.00 
 148   22:20   0.00   39.3    64    1.8   341     5.4   99999.0    0.00 
 148   22:30   0.00   40.1    62    1.4   246     3.6   99999.0    0.00 
 148   22:40   0.00   40.1    63    2.3   235     7.8   99999.0    0.00 
 148   22:50   0.00   40.0    64    2.9   230     6.6   99999.0    0.00 
 148   23:00   0.00   41.3    60    1.8   236     3.6   99999.0    0.00 
 148   23:10   0.00   40.3    64    2.1   227     3.6   99999.0    0.00 
 148   23:20   0.00   40.4    64    1.9   215     4.2   99999.0    0.00 
 148   23:30   0.00   40.4    64    1.7   225     4.2   99999.0    0.00 
 148   23:40   0.00   40.7    62    2.1    37     6.0   99999.0    0.00 
 148   23:50   0.00   40.0    65    2.5   238     4.2   99999.0    0.00 
 149    0:00   0.00   40.3    64    2.3   349     8.4   99999.0    0.00 
 149    0:10   0.00   42.9    58    4.8   360    13.1   99999.0    0.00 
 149    0:20   0.00   41.0    63    3.1   285     6.0   99999.0    0.00 
 149    0:30   0.00   41.5    62    3.2   302     7.8   99999.0    0.00 
 149    0:40   0.00   42.5    59    2.9   105     7.2   99999.0    0.00 
 149    0:50   0.00   39.8    65    2.2   320     4.2   99999.0    0.00 
 149    1:00   0.00   41.4    62    6.3    29    17.3   99999.0    0.00 
 149    1:10   0.00   47.2    49    6.6    34    14.3   99999.0    0.00 
 149    1:20   0.00   48.0    47    5.5    38    13.7   99999.0    0.00 
 149    1:30   0.00   46.0    51    4.6    25    12.5   99999.0    0.00 
 149    1:40   0.00   47.3    48    5.6     4    10.8   99999.0    0.00 
 149    1:50   0.00   45.5    52    5.7     6    14.3   99999.0    0.00 
 149    2:00   0.00   41.4    60    2.9   318     6.0   99999.0    0.00 
 149    2:10   0.00   39.1    66    2.8     3     4.8   99999.0    0.00 
 149    2:20   0.00   37.8    69    2.1   250     4.8   99999.0    0.00 
 149    2:30   0.00   36.6    72    2.6   240     4.2   99999.0    0.00 
 149    2:40   0.00   36.2    74    2.0   220     3.6   99999.0    0.00 
 149    2:50   0.00   34.5    76    1.8   307     4.8   99999.0    0.00 
 149    3:00   0.00   34.3    77    1.1   208     3.0   99999.0    0.00 
 149    3:10   0.00   33.8    77    2.2   266     5.4   99999.0    0.00 
 149    3:20   0.00   33.2    80    2.0   237     3.6   99999.0    0.00 
 149    3:30   0.00   33.7    79    2.1   269     4.2   99999.0    0.00 
 149    3:40   0.00   32.4    81    2.0   241     4.2   99999.0    0.00 
 149    3:50   0.00   32.1    83    3.0   243     4.2   99999.0    0.00 
 149    4:00   0.00   32.3    84    1.9   244     3.0   99999.0    0.00 
 149    4:10   0.00   32.8    82    1.6   222     3.0   99999.0    0.00 
 149    4:20   0.00   33.3    80    0.4   228     2.4   99999.0    0.00 

Return to Los Posos, Valles Caldera graphs page.


Western Regional Climate Center,wrcc@dri.edu